sensor_id;sensor_type;location;lat;lon;timestamp;P1;durP1;ratioP1;P2;durP2;ratioP2
59790;SDS011;47431;51.640;5.554;2023-02-13T00:01:46;48.30;;;30.27;;
59790;SDS011;47431;51.640;5.554;2023-02-13T00:04:11;53.97;;;32.05;;
59790;SDS011;47431;51.640;5.554;2023-02-13T00:06:36;50.80;;;31.75;;
59790;SDS011;47431;51.640;5.554;2023-02-13T00:09:01;48.47;;;29.80;;
59790;SDS011;47431;51.640;5.554;2023-02-13T00:11:27;54.00;;;30.17;;
59790;SDS011;47431;51.640;5.554;2023-02-13T00:13:52;46.60;;;33.13;;
59790;SDS011;47431;51.640;5.554;2023-02-13T00:16:17;48.80;;;29.88;;
59790;SDS011;47431;51.640;5.554;2023-02-13T00:18:43;47.20;;;30.95;;
59790;SDS011;47431;51.640;5.554;2023-02-13T00:21:09;50.00;;;31.63;;
59790;SDS011;47431;51.640;5.554;2023-02-13T00:23:35;55.70;;;31.95;;
59790;SDS011;47431;51.640;5.554;2023-02-13T00:26:03;47.58;;;32.08;;
59790;SDS011;47431;51.640;5.554;2023-02-13T00:28:29;60.40;;;31.75;;
59790;SDS011;47431;51.640;5.554;2023-02-13T00:31:00;49.45;;;31.35;;
59790;SDS011;47431;51.640;5.554;2023-02-13T00:33:25;49.60;;;30.85;;
59790;SDS011;47431;51.640;5.554;2023-02-13T00:35:51;51.17;;;30.75;;
59790;SDS011;47431;51.640;5.554;2023-02-13T00:38:16;54.92;;;34.60;;
59790;SDS011;47431;51.640;5.554;2023-02-13T00:40:41;49.47;;;31.30;;
59790;SDS011;47431;51.640;5.554;2023-02-13T00:43:06;47.80;;;31.20;;
59790;SDS011;47431;51.640;5.554;2023-02-13T00:45:32;47.85;;;30.92;;
59790;SDS011;47431;51.640;5.554;2023-02-13T00:47:57;50.40;;;30.95;;
59790;SDS011;47431;51.640;5.554;2023-02-13T00:50:23;53.05;;;32.00;;
59790;SDS011;47431;51.640;5.554;2023-02-13T00:52:48;47.78;;;30.70;;
59790;SDS011;47431;51.640;5.554;2023-02-13T00:55:13;55.40;;;36.10;;
59790;SDS011;47431;51.640;5.554;2023-02-13T00:57:38;55.13;;;34.03;;
59790;SDS011;47431;51.640;5.554;2023-02-13T01:00:04;51.42;;;32.15;;
59790;SDS011;47431;51.640;5.554;2023-02-13T01:02:29;56.90;;;32.50;;
59790;SDS011;47431;51.640;5.554;2023-02-13T01:04:54;54.63;;;34.45;;
59790;SDS011;47431;51.640;5.554;2023-02-13T01:07:19;51.78;;;32.85;;
59790;SDS011;47431;51.640;5.554;2023-02-13T01:09:45;49.75;;;33.60;;
59790;SDS011;47431;51.640;5.554;2023-02-13T01:12:10;50.70;;;32.90;;
59790;SDS011;47431;51.640;5.554;2023-02-13T01:14:35;51.30;;;32.33;;
59790;SDS011;47431;51.640;5.554;2023-02-13T01:17:00;48.88;;;32.30;;
59790;SDS011;47431;51.640;5.554;2023-02-13T01:19:26;55.85;;;33.30;;
59790;SDS011;47431;51.640;5.554;2023-02-13T01:21:51;57.67;;;34.53;;
59790;SDS011;47431;51.640;5.554;2023-02-13T01:24:16;54.50;;;34.20;;
59790;SDS011;47431;51.640;5.554;2023-02-13T01:26:41;48.03;;;32.10;;
59790;SDS011;47431;51.640;5.554;2023-02-13T01:29:07;58.00;;;37.38;;
59790;SDS011;47431;51.640;5.554;2023-02-13T01:31:33;54.85;;;33.00;;
59790;SDS011;47431;51.640;5.554;2023-02-13T01:33:58;56.47;;;34.95;;
59790;SDS011;47431;51.640;5.554;2023-02-13T01:36:24;49.72;;;32.50;;
59790;SDS011;47431;51.640;5.554;2023-02-13T01:38:53;52.67;;;32.63;;
59790;SDS011;47431;51.640;5.554;2023-02-13T01:41:18;52.53;;;33.92;;
59790;SDS011;47431;51.640;5.554;2023-02-13T01:43:49;53.88;;;32.88;;
59790;SDS011;47431;51.640;5.554;2023-02-13T01:46:16;52.38;;;35.88;;
59790;SDS011;47431;51.640;5.554;2023-02-13T01:48:43;53.45;;;34.85;;
59790;SDS011;47431;51.640;5.554;2023-02-13T01:51:13;53.60;;;33.13;;
59790;SDS011;47431;51.640;5.554;2023-02-13T01:53:44;55.00;;;33.80;;
59790;SDS011;47431;51.640;5.554;2023-02-13T01:56:21;50.60;;;34.35;;
59790;SDS011;47431;51.640;5.554;2023-02-13T01:58:48;50.05;;;34.65;;
59790;SDS011;47431;51.640;5.554;2023-02-13T02:01:16;55.10;;;32.97;;
59790;SDS011;47431;51.640;5.554;2023-02-13T02:03:46;59.90;;;36.92;;
59790;SDS011;47431;51.640;5.554;2023-02-13T02:09:09;49.90;;;35.53;;
59790;SDS011;47431;51.640;5.554;2023-02-13T02:11:40;54.63;;;35.95;;
59790;SDS011;47431;51.640;5.554;2023-02-13T02:14:06;55.53;;;34.85;;
59790;SDS011;47431;51.640;5.554;2023-02-13T02:16:31;59.20;;;36.90;;
59790;SDS011;47431;51.640;5.554;2023-02-13T02:18:57;57.35;;;33.33;;
59790;SDS011;47431;51.640;5.554;2023-02-13T02:21:32;63.55;;;35.22;;
59790;SDS011;47431;51.640;5.554;2023-02-13T02:47:17;57.72;;;34.85;;
59790;SDS011;47431;51.640;5.554;2023-02-13T02:57:44;52.58;;;35.13;;
59790;SDS011;47431;51.640;5.554;2023-02-13T03:00:29;59.08;;;36.20;;
59790;SDS011;47431;51.640;5.554;2023-02-13T03:03:24;46.50;;;30.45;;
59790;SDS011;47431;51.640;5.554;2023-02-13T03:06:16;48.30;;;32.95;;
59790;SDS011;47431;51.640;5.554;2023-02-13T03:08:45;45.47;;;30.17;;
59790;SDS011;47431;51.640;5.554;2023-02-13T03:11:30;53.08;;;32.67;;
59790;SDS011;47431;51.640;5.554;2023-02-13T03:14:16;54.47;;;33.80;;
59790;SDS011;47431;51.640;5.554;2023-02-13T03:16:43;51.92;;;33.45;;
59790;SDS011;47431;51.640;5.554;2023-02-13T03:19:35;57.17;;;34.35;;
59790;SDS011;47431;51.640;5.554;2023-02-13T03:22:27;54.72;;;33.33;;
59790;SDS011;47431;51.640;5.554;2023-02-13T03:35:48;56.63;;;35.15;;
59790;SDS011;47431;51.640;5.554;2023-02-13T03:41:05;62.50;;;37.50;;
59790;SDS011;47431;51.640;5.554;2023-02-13T03:46:27;60.28;;;35.65;;
59790;SDS011;47431;51.640;5.554;2023-02-13T03:48:55;51.90;;;33.55;;
59790;SDS011;47431;51.640;5.554;2023-02-13T03:51:42;56.50;;;35.25;;
59790;SDS011;47431;51.640;5.554;2023-02-13T03:54:15;54.42;;;30.52;;
59790;SDS011;47431;51.640;5.554;2023-02-13T03:56:41;61.53;;;35.33;;
59790;SDS011;47431;51.640;5.554;2023-02-13T03:59:31;49.22;;;30.90;;
59790;SDS011;47431;51.640;5.554;2023-02-13T04:02:09;55.67;;;34.53;;
59790;SDS011;47431;51.640;5.554;2023-02-13T04:07:01;56.83;;;35.85;;
59790;SDS011;47431;51.640;5.554;2023-02-13T04:09:28;57.78;;;35.30;;
59790;SDS011;47431;51.640;5.554;2023-02-13T04:12:01;48.45;;;30.23;;
59790;SDS011;47431;51.640;5.554;2023-02-13T04:16:56;59.80;;;34.35;;
59790;SDS011;47431;51.640;5.554;2023-02-13T04:19:24;55.42;;;33.75;;
59790;SDS011;47431;51.640;5.554;2023-02-13T04:21:53;55.03;;;33.58;;
59790;SDS011;47431;51.640;5.554;2023-02-13T04:24:19;49.30;;;31.98;;
59790;SDS011;47431;51.640;5.554;2023-02-13T04:26:45;55.35;;;34.05;;
59790;SDS011;47431;51.640;5.554;2023-02-13T04:29:10;61.60;;;35.13;;
59790;SDS011;47431;51.640;5.554;2023-02-13T04:31:35;54.58;;;31.95;;
59790;SDS011;47431;51.640;5.554;2023-02-13T04:34:01;52.30;;;32.83;;
59790;SDS011;47431;51.640;5.554;2023-02-13T04:36:26;56.00;;;31.50;;
59790;SDS011;47431;51.640;5.554;2023-02-13T04:38:51;57.42;;;32.60;;
59790;SDS011;47431;51.640;5.554;2023-02-13T04:41:17;63.95;;;35.15;;
59790;SDS011;47431;51.640;5.554;2023-02-13T04:43:42;54.47;;;34.53;;
59790;SDS011;47431;51.640;5.554;2023-02-13T04:46:07;59.67;;;34.95;;
59790;SDS011;47431;51.640;5.554;2023-02-13T04:48:33;58.67;;;37.53;;
59790;SDS011;47431;51.640;5.554;2023-02-13T04:50:58;60.50;;;34.92;;
59790;SDS011;47431;51.640;5.554;2023-02-13T04:53:23;74.47;;;39.07;;
59790;SDS011;47431;51.640;5.554;2023-02-13T04:55:48;57.85;;;34.33;;
59790;SDS011;47431;51.640;5.554;2023-02-13T04:58:14;57.38;;;33.22;;
59790;SDS011;47431;51.640;5.554;2023-02-13T05:00:39;63.00;;;33.67;;
59790;SDS011;47431;51.640;5.554;2023-02-13T05:03:08;57.93;;;32.53;;
59790;SDS011;47431;51.640;5.554;2023-02-13T05:05:34;57.23;;;31.10;;
59790;SDS011;47431;51.640;5.554;2023-02-13T05:07:59;61.35;;;33.80;;
59790;SDS011;47431;51.640;5.554;2023-02-13T05:10:25;58.20;;;34.93;;
59790;SDS011;47431;51.640;5.554;2023-02-13T05:12:50;59.70;;;32.90;;
59790;SDS011;47431;51.640;5.554;2023-02-13T05:15:15;54.00;;;33.80;;
59790;SDS011;47431;51.640;5.554;2023-02-13T05:17:44;56.83;;;32.05;;
59790;SDS011;47431;51.640;5.554;2023-02-13T05:20:10;60.97;;;35.80;;
59790;SDS011;47431;51.640;5.554;2023-02-13T05:22:35;53.20;;;32.97;;
59790;SDS011;47431;51.640;5.554;2023-02-13T05:25:19;56.53;;;34.67;;
59790;SDS011;47431;51.640;5.554;2023-02-13T05:27:44;56.08;;;34.25;;
59790;SDS011;47431;51.640;5.554;2023-02-13T05:30:09;63.80;;;36.25;;
59790;SDS011;47431;51.640;5.554;2023-02-13T05:32:35;65.63;;;32.90;;
59790;SDS011;47431;51.640;5.554;2023-02-13T05:35:00;56.67;;;33.35;;
59790;SDS011;47431;51.640;5.554;2023-02-13T05:37:26;59.42;;;34.97;;
59790;SDS011;47431;51.640;5.554;2023-02-13T05:39:51;61.03;;;36.92;;
59790;SDS011;47431;51.640;5.554;2023-02-13T05:42:16;58.57;;;35.10;;
59790;SDS011;47431;51.640;5.554;2023-02-13T05:44:41;58.43;;;34.37;;
59790;SDS011;47431;51.640;5.554;2023-02-13T05:47:06;60.30;;;34.13;;
59790;SDS011;47431;51.640;5.554;2023-02-13T05:49:32;57.90;;;33.07;;
59790;SDS011;47431;51.640;5.554;2023-02-13T05:51:57;57.17;;;35.40;;
59790;SDS011;47431;51.640;5.554;2023-02-13T05:54:22;67.87;;;36.63;;
59790;SDS011;47431;51.640;5.554;2023-02-13T05:56:47;60.90;;;35.37;;
59790;SDS011;47431;51.640;5.554;2023-02-13T05:59:13;61.00;;;34.33;;
59790;SDS011;47431;51.640;5.554;2023-02-13T06:01:38;66.63;;;37.77;;
59790;SDS011;47431;51.640;5.554;2023-02-13T06:04:03;72.93;;;38.13;;
59790;SDS011;47431;51.640;5.554;2023-02-13T06:06:29;56.73;;;33.90;;
59790;SDS011;47431;51.640;5.554;2023-02-13T06:08:54;61.57;;;35.43;;
59790;SDS011;47431;51.640;5.554;2023-02-13T06:11:19;65.23;;;35.97;;
59790;SDS011;47431;51.640;5.554;2023-02-13T06:13:44;65.30;;;36.40;;
59790;SDS011;47431;51.640;5.554;2023-02-13T06:16:10;64.97;;;32.57;;
59790;SDS011;47431;51.640;5.554;2023-02-13T06:18:35;58.30;;;32.40;;
59790;SDS011;47431;51.640;5.554;2023-02-13T06:21:00;62.07;;;35.77;;
59790;SDS011;47431;51.640;5.554;2023-02-13T06:23:26;68.17;;;36.03;;
59790;SDS011;47431;51.640;5.554;2023-02-13T06:25:51;62.27;;;32.97;;
59790;SDS011;47431;51.640;5.554;2023-02-13T06:28:16;63.80;;;36.07;;
59790;SDS011;47431;51.640;5.554;2023-02-13T06:30:42;66.63;;;35.57;;
59790;SDS011;47431;51.640;5.554;2023-02-13T06:33:07;70.10;;;35.23;;
59790;SDS011;47431;51.640;5.554;2023-02-13T06:35:32;62.83;;;32.30;;
59790;SDS011;47431;51.640;5.554;2023-02-13T06:37:57;65.93;;;36.77;;
59790;SDS011;47431;51.640;5.554;2023-02-13T06:40:23;61.33;;;35.10;;
59790;SDS011;47431;51.640;5.554;2023-02-13T06:42:48;58.77;;;32.43;;
59790;SDS011;47431;51.640;5.554;2023-02-13T06:45:13;62.63;;;32.47;;
59790;SDS011;47431;51.640;5.554;2023-02-13T06:47:45;61.77;;;31.97;;
59790;SDS011;47431;51.640;5.554;2023-02-13T06:50:11;341.67;;;59.47;;
59790;SDS011;47431;51.640;5.554;2023-02-13T06:52:36;587.73;;;103.47;;
59790;SDS011;47431;51.640;5.554;2023-02-13T06:55:02;70.80;;;31.00;;
59790;SDS011;47431;51.640;5.554;2023-02-13T06:57:28;384.80;;;72.97;;
59790;SDS011;47431;51.640;5.554;2023-02-13T06:59:56;66.10;;;31.87;;
59790;SDS011;47431;51.640;5.554;2023-02-13T07:02:22;64.97;;;31.57;;
59790;SDS011;47431;51.640;5.554;2023-02-13T07:04:47;55.83;;;30.93;;
59790;SDS011;47431;51.640;5.554;2023-02-13T07:07:12;70.43;;;36.13;;
59790;SDS011;47431;51.640;5.554;2023-02-13T07:09:37;80.60;;;34.40;;
59790;SDS011;47431;51.640;5.554;2023-02-13T07:12:03;208.50;;;57.57;;
59790;SDS011;47431;51.640;5.554;2023-02-13T07:14:29;117.07;;;37.83;;
59790;SDS011;47431;51.640;5.554;2023-02-13T07:16:54;96.07;;;32.90;;
59790;SDS011;47431;51.640;5.554;2023-02-13T07:19:20;57.70;;;32.40;;
59790;SDS011;47431;51.640;5.554;2023-02-13T07:21:45;69.30;;;34.17;;
59790;SDS011;47431;51.640;5.554;2023-02-13T07:24:10;52.40;;;30.77;;
59790;SDS011;47431;51.640;5.554;2023-02-13T07:26:35;45.80;;;25.57;;
59790;SDS011;47431;51.640;5.554;2023-02-13T07:29:00;40.83;;;22.67;;
59790;SDS011;47431;51.640;5.554;2023-02-13T07:31:30;40.80;;;23.27;;
59790;SDS011;47431;51.640;5.554;2023-02-13T07:33:55;32.17;;;18.63;;
59790;SDS011;47431;51.640;5.554;2023-02-13T07:36:21;31.50;;;19.40;;
59790;SDS011;47431;51.640;5.554;2023-02-13T07:38:46;108.53;;;26.33;;
59790;SDS011;47431;51.640;5.554;2023-02-13T07:41:11;122.73;;;33.23;;
59790;SDS011;47431;51.640;5.554;2023-02-13T07:43:36;39.33;;;23.07;;
59790;SDS011;47431;51.640;5.554;2023-02-13T07:46:02;49.47;;;28.30;;
59790;SDS011;47431;51.640;5.554;2023-02-13T07:48:28;35.90;;;22.93;;
59790;SDS011;47431;51.640;5.554;2023-02-13T07:51:00;242.97;;;51.53;;
59790;SDS011;47431;51.640;5.554;2023-02-13T07:55:51;67.07;;;31.88;;
59790;SDS011;47431;51.640;5.554;2023-02-13T07:58:16;66.80;;;34.93;;
59790;SDS011;47431;51.640;5.554;2023-02-13T08:00:41;72.20;;;38.73;;
59790;SDS011;47431;51.640;5.554;2023-02-13T08:03:07;67.17;;;36.17;;
59790;SDS011;47431;51.640;5.554;2023-02-13T08:05:33;79.53;;;41.30;;
59790;SDS011;47431;51.640;5.554;2023-02-13T08:07:58;71.60;;;39.00;;
59790;SDS011;47431;51.640;5.554;2023-02-13T08:10:23;71.80;;;41.17;;
59790;SDS011;47431;51.640;5.554;2023-02-13T08:13:07;77.97;;;42.60;;
59790;SDS011;47431;51.640;5.554;2023-02-13T08:15:33;90.38;;;45.50;;
59790;SDS011;47431;51.640;5.554;2023-02-13T08:17:58;80.00;;;42.85;;
59790;SDS011;47431;51.640;5.554;2023-02-13T08:20:23;74.13;;;42.13;;
59790;SDS011;47431;51.640;5.554;2023-02-13T08:22:49;78.25;;;41.92;;
59790;SDS011;47431;51.640;5.554;2023-02-13T08:25:14;74.38;;;40.72;;
59790;SDS011;47431;51.640;5.554;2023-02-13T08:27:39;92.50;;;48.20;;
59790;SDS011;47431;51.640;5.554;2023-02-13T08:30:05;75.53;;;42.60;;
59790;SDS011;47431;51.640;5.554;2023-02-13T08:32:30;90.32;;;44.60;;
59790;SDS011;47431;51.640;5.554;2023-02-13T08:34:55;93.60;;;46.05;;
59790;SDS011;47431;51.640;5.554;2023-02-13T08:37:20;89.45;;;48.70;;
59790;SDS011;47431;51.640;5.554;2023-02-13T08:39:46;100.68;;;50.72;;
59790;SDS011;47431;51.640;5.554;2023-02-13T08:42:11;105.15;;;53.25;;
59790;SDS011;47431;51.640;5.554;2023-02-13T08:44:36;95.80;;;50.03;;
59790;SDS011;47431;51.640;5.554;2023-02-13T08:47:05;90.00;;;48.97;;
59790;SDS011;47431;51.640;5.554;2023-02-13T08:49:30;90.13;;;48.25;;
59790;SDS011;47431;51.640;5.554;2023-02-13T08:51:56;66.80;;;44.10;;
59790;SDS011;47431;51.640;5.554;2023-02-13T08:54:21;72.22;;;44.90;;
59790;SDS011;47431;51.640;5.554;2023-02-13T08:56:46;62.35;;;40.30;;
59790;SDS011;47431;51.640;5.554;2023-02-13T08:59:11;54.00;;;36.50;;
59790;SDS011;47431;51.640;5.554;2023-02-13T09:01:37;49.85;;;35.22;;
59790;SDS011;47431;51.640;5.554;2023-02-13T09:04:02;43.70;;;31.88;;
59790;SDS011;47431;51.640;5.554;2023-02-13T09:06:27;46.60;;;33.60;;
59790;SDS011;47431;51.640;5.554;2023-02-13T09:08:53;41.00;;;31.42;;
59790;SDS011;47431;51.640;5.554;2023-02-13T09:11:18;46.10;;;34.40;;
59790;SDS011;47431;51.640;5.554;2023-02-13T09:13:46;42.58;;;31.10;;
59790;SDS011;47431;51.640;5.554;2023-02-13T09:16:12;40.75;;;30.35;;
59790;SDS011;47431;51.640;5.554;2023-02-13T09:18:37;38.13;;;29.27;;
59790;SDS011;47431;51.640;5.554;2023-02-13T09:21:03;42.55;;;28.23;;
59790;SDS011;47431;51.640;5.554;2023-02-13T09:23:30;38.55;;;28.23;;
59790;SDS011;47431;51.640;5.554;2023-02-13T09:25:57;36.42;;;29.25;;
59790;SDS011;47431;51.640;5.554;2023-02-13T09:28:23;36.10;;;25.67;;
59790;SDS011;47431;51.640;5.554;2023-02-13T09:30:48;37.30;;;26.77;;
59790;SDS011;47431;51.640;5.554;2023-02-13T09:33:13;32.90;;;24.17;;
59790;SDS011;47431;51.640;5.554;2023-02-13T09:35:38;28.65;;;22.70;;
59790;SDS011;47431;51.640;5.554;2023-02-13T09:38:06;30.55;;;23.10;;
59790;SDS011;47431;51.640;5.554;2023-02-13T09:40:34;34.92;;;24.48;;
59790;SDS011;47431;51.640;5.554;2023-02-13T09:43:06;30.38;;;21.83;;
59790;SDS011;47431;51.640;5.554;2023-02-13T09:45:31;35.60;;;23.17;;
59790;SDS011;47431;51.640;5.554;2023-02-13T09:47:56;29.98;;;22.67;;
59790;SDS011;47431;51.640;5.554;2023-02-13T09:50:23;29.45;;;22.60;;
59790;SDS011;47431;51.640;5.554;2023-02-13T09:52:50;30.55;;;24.33;;
59790;SDS011;47431;51.640;5.554;2023-02-13T09:55:20;29.17;;;22.23;;
59790;SDS011;47431;51.640;5.554;2023-02-13T10:02:52;28.85;;;22.42;;
59790;SDS011;47431;51.640;5.554;2023-02-13T10:15:53;28.42;;;21.85;;
59790;SDS011;47431;51.640;5.554;2023-02-13T10:18:22;26.55;;;20.23;;
59790;SDS011;47431;51.640;5.554;2023-02-13T10:20:53;24.75;;;19.88;;
59790;SDS011;47431;51.640;5.554;2023-02-13T10:25:51;24.85;;;20.08;;
59790;SDS011;47431;51.640;5.554;2023-02-13T10:28:32;22.67;;;17.98;;
59790;SDS011;47431;51.640;5.554;2023-02-13T10:31:02;26.23;;;20.83;;
59790;SDS011;47431;51.640;5.554;2023-02-13T10:33:33;23.67;;;19.98;;
59790;SDS011;47431;51.640;5.554;2023-02-13T10:36:03;25.33;;;19.13;;
59790;SDS011;47431;51.640;5.554;2023-02-13T10:38:30;23.60;;;19.20;;
59790;SDS011;47431;51.640;5.554;2023-02-13T10:46:26;24.88;;;18.35;;
59790;SDS011;47431;51.640;5.554;2023-02-13T10:49:09;24.15;;;18.77;;
59790;SDS011;47431;51.640;5.554;2023-02-13T10:51:40;23.83;;;18.52;;
59790;SDS011;47431;51.640;5.554;2023-02-13T10:59:39;26.25;;;20.45;;
59790;SDS011;47431;51.640;5.554;2023-02-13T11:02:20;25.02;;;19.67;;
59790;SDS011;47431;51.640;5.554;2023-02-13T11:04:46;22.95;;;17.98;;
59790;SDS011;47431;51.640;5.554;2023-02-13T11:07:13;22.98;;;17.50;;
59790;SDS011;47431;51.640;5.554;2023-02-13T11:09:40;22.23;;;18.13;;
59790;SDS011;47431;51.640;5.554;2023-02-13T11:15:14;20.60;;;16.95;;
59790;SDS011;47431;51.640;5.554;2023-02-13T11:17:38;27.98;;;18.13;;
59790;SDS011;47431;51.640;5.554;2023-02-13T11:22:48;23.45;;;17.58;;
59790;SDS011;47431;51.640;5.554;2023-02-13T11:25:24;23.77;;;19.13;;
59790;SDS011;47431;51.640;5.554;2023-02-13T11:27:50;21.67;;;17.75;;
59790;SDS011;47431;51.640;5.554;2023-02-13T11:35:32;23.08;;;18.83;;
59790;SDS011;47431;51.640;5.554;2023-02-13T11:38:10;22.00;;;18.50;;
59790;SDS011;47431;51.640;5.554;2023-02-13T11:40:36;22.50;;;19.38;;
59790;SDS011;47431;51.640;5.554;2023-02-13T11:43:02;21.08;;;17.55;;
59790;SDS011;47431;51.640;5.554;2023-02-13T11:45:30;30.05;;;20.25;;
59790;SDS011;47431;51.640;5.554;2023-02-13T11:47:55;23.45;;;20.20;;
59790;SDS011;47431;51.640;5.554;2023-02-13T11:50:24;24.52;;;19.25;;
59790;SDS011;47431;51.640;5.554;2023-02-13T11:52:54;24.30;;;19.73;;
59790;SDS011;47431;51.640;5.554;2023-02-13T11:55:41;26.27;;;20.35;;
59790;SDS011;47431;51.640;5.554;2023-02-13T12:00:39;25.13;;;18.92;;
59790;SDS011;47431;51.640;5.554;2023-02-13T12:08:29;21.48;;;16.75;;
59790;SDS011;47431;51.640;5.554;2023-02-13T12:10:55;26.65;;;17.58;;
59790;SDS011;47431;51.640;5.554;2023-02-13T12:13:32;23.50;;;17.67;;
59790;SDS011;47431;51.640;5.554;2023-02-13T12:16:03;22.80;;;16.92;;
59790;SDS011;47431;51.640;5.554;2023-02-13T12:18:36;23.27;;;17.08;;
59790;SDS011;47431;51.640;5.554;2023-02-13T12:28:33;23.25;;;16.35;;
59790;SDS011;47431;51.640;5.554;2023-02-13T12:31:18;22.38;;;16.30;;
59790;SDS011;47431;51.640;5.554;2023-02-13T12:39:24;26.50;;;16.17;;
59790;SDS011;47431;51.640;5.554;2023-02-13T12:41:57;23.88;;;18.35;;
59790;SDS011;47431;51.640;5.554;2023-02-13T12:47:09;25.48;;;18.30;;
59790;SDS011;47431;51.640;5.554;2023-02-13T12:55:42;22.70;;;17.38;;
59790;SDS011;47431;51.640;5.554;2023-02-13T13:00:30;21.02;;;17.70;;
59790;SDS011;47431;51.640;5.554;2023-02-13T13:13:47;22.13;;;17.90;;
59790;SDS011;47431;51.640;5.554;2023-02-13T13:16:13;23.50;;;18.50;;
59790;SDS011;47431;51.640;5.554;2023-02-13T13:18:46;26.83;;;19.50;;
59790;SDS011;47431;51.640;5.554;2023-02-13T13:28:41;24.08;;;18.58;;
59790;SDS011;47431;51.640;5.554;2023-02-13T13:31:07;23.65;;;18.10;;
59790;SDS011;47431;51.640;5.554;2023-02-13T13:33:33;24.35;;;18.33;;
59790;SDS011;47431;51.640;5.554;2023-02-13T13:39:29;26.05;;;19.08;;
59790;SDS011;47431;51.640;5.554;2023-02-13T13:46:20;21.88;;;17.55;;
59790;SDS011;47431;51.640;5.554;2023-02-13T13:51:17;23.38;;;18.88;;
59790;SDS011;47431;51.640;5.554;2023-02-13T13:57:12;24.50;;;18.38;;
59790;SDS011;47431;51.640;5.554;2023-02-13T13:59:15;27.42;;;18.40;;
59790;SDS011;47431;51.640;5.554;2023-02-13T14:01:41;23.67;;;17.02;;
59790;SDS011;47431;51.640;5.554;2023-02-13T14:11:59;23.58;;;19.10;;
59790;SDS011;47431;51.640;5.554;2023-02-13T14:14:45;23.65;;;18.85;;
59790;SDS011;47431;51.640;5.554;2023-02-13T14:17:11;25.40;;;20.33;;
59790;SDS011;47431;51.640;5.554;2023-02-13T14:19:37;23.15;;;19.20;;
59790;SDS011;47431;51.640;5.554;2023-02-13T14:24:56;25.63;;;19.05;;
59790;SDS011;47431;51.640;5.554;2023-02-13T14:27:27;24.20;;;17.98;;
59790;SDS011;47431;51.640;5.554;2023-02-13T14:29:53;22.83;;;18.20;;
59790;SDS011;47431;51.640;5.554;2023-02-13T14:32:21;22.85;;;18.20;;
59790;SDS011;47431;51.640;5.554;2023-02-13T14:34:50;28.08;;;19.60;;
59790;SDS011;47431;51.640;5.554;2023-02-13T14:37:17;23.17;;;18.48;;
59790;SDS011;47431;51.640;5.554;2023-02-13T14:42:33;25.40;;;18.95;;
59790;SDS011;47431;51.640;5.554;2023-02-13T14:44:59;25.30;;;19.75;;
59790;SDS011;47431;51.640;5.554;2023-02-13T14:49:50;24.52;;;19.48;;
59790;SDS011;47431;51.640;5.554;2023-02-13T14:52:17;27.15;;;20.27;;
59790;SDS011;47431;51.640;5.554;2023-02-13T14:54:47;23.10;;;19.48;;
59790;SDS011;47431;51.640;5.554;2023-02-13T14:57:18;27.52;;;21.40;;
59790;SDS011;47431;51.640;5.554;2023-02-13T14:59:47;25.80;;;20.20;;
59790;SDS011;47431;51.640;5.554;2023-02-13T15:02:23;25.23;;;19.95;;
59790;SDS011;47431;51.640;5.554;2023-02-13T15:05:11;26.63;;;19.67;;
59790;SDS011;47431;51.640;5.554;2023-02-13T15:07:40;25.08;;;19.70;;
59790;SDS011;47431;51.640;5.554;2023-02-13T15:10:43;25.00;;;19.58;;
59790;SDS011;47431;51.640;5.554;2023-02-13T15:13:01;26.45;;;19.20;;
59790;SDS011;47431;51.640;5.554;2023-02-13T15:15:33;24.23;;;19.38;;
59790;SDS011;47431;51.640;5.554;2023-02-13T15:17:59;24.92;;;19.50;;
59790;SDS011;47431;51.640;5.554;2023-02-13T15:20:26;25.83;;;20.23;;
59790;SDS011;47431;51.640;5.554;2023-02-13T15:22:52;26.52;;;19.73;;
59790;SDS011;47431;51.640;5.554;2023-02-13T15:27:51;25.42;;;18.75;;
59790;SDS011;47431;51.640;5.554;2023-02-13T15:31:20;25.63;;;19.35;;
59790;SDS011;47431;51.640;5.554;2023-02-13T15:35:40;25.92;;;18.40;;
59790;SDS011;47431;51.640;5.554;2023-02-13T15:40:49;23.65;;;18.92;;
59790;SDS011;47431;51.640;5.554;2023-02-13T15:43:21;23.73;;;19.95;;
59790;SDS011;47431;51.640;5.554;2023-02-13T15:45:47;27.17;;;20.63;;
59790;SDS011;47431;51.640;5.554;2023-02-13T15:48:15;25.08;;;19.55;;
59790;SDS011;47431;51.640;5.554;2023-02-13T15:50:41;25.25;;;20.25;;
59790;SDS011;47431;51.640;5.554;2023-02-13T15:53:09;24.40;;;19.60;;
59790;SDS011;47431;51.640;5.554;2023-02-13T15:55:36;21.95;;;19.00;;
59790;SDS011;47431;51.640;5.554;2023-02-13T15:58:02;26.38;;;19.38;;
59790;SDS011;47431;51.640;5.554;2023-02-13T16:00:29;23.10;;;17.23;;
59790;SDS011;47431;51.640;5.554;2023-02-13T16:02:55;25.70;;;19.55;;
59790;SDS011;47431;51.640;5.554;2023-02-13T16:05:22;23.70;;;18.10;;
59790;SDS011;47431;51.640;5.554;2023-02-13T16:07:48;24.67;;;18.58;;
59790;SDS011;47431;51.640;5.554;2023-02-13T16:12:51;31.63;;;19.27;;
59790;SDS011;47431;51.640;5.554;2023-02-13T16:15:17;24.58;;;20.70;;
59790;SDS011;47431;51.640;5.554;2023-02-13T16:17:44;24.33;;;19.85;;
59790;SDS011;47431;51.640;5.554;2023-02-13T16:22:39;28.45;;;21.30;;
59790;SDS011;47431;51.640;5.554;2023-02-13T16:27:32;26.90;;;20.52;;
59790;SDS011;47431;51.640;5.554;2023-02-13T16:29:59;26.75;;;20.60;;
59790;SDS011;47431;51.640;5.554;2023-02-13T16:32:26;25.98;;;17.92;;
59790;SDS011;47431;51.640;5.554;2023-02-13T16:34:52;27.83;;;21.33;;
59790;SDS011;47431;51.640;5.554;2023-02-13T16:37:25;27.27;;;19.58;;
59790;SDS011;47431;51.640;5.554;2023-02-13T16:39:50;32.13;;;20.42;;
59790;SDS011;47431;51.640;5.554;2023-02-13T16:42:18;29.73;;;21.00;;
59790;SDS011;47431;51.640;5.554;2023-02-13T16:44:43;29.20;;;21.38;;
59790;SDS011;47431;51.640;5.554;2023-02-13T16:47:15;28.05;;;21.55;;
59790;SDS011;47431;51.640;5.554;2023-02-13T16:49:43;29.88;;;20.55;;
59790;SDS011;47431;51.640;5.554;2023-02-13T17:07:32;31.60;;;22.70;;
59790;SDS011;47431;51.640;5.554;2023-02-13T17:10:00;33.25;;;23.70;;
59790;SDS011;47431;51.640;5.554;2023-02-13T17:12:26;32.75;;;22.77;;
59790;SDS011;47431;51.640;5.554;2023-02-13T17:14:55;32.10;;;21.55;;
59790;SDS011;47431;51.640;5.554;2023-02-13T17:17:21;36.17;;;22.73;;
59790;SDS011;47431;51.640;5.554;2023-02-13T17:19:47;33.40;;;22.90;;
59790;SDS011;47431;51.640;5.554;2023-02-13T17:22:26;34.17;;;25.42;;
59790;SDS011;47431;51.640;5.554;2023-02-13T17:24:54;37.97;;;24.55;;
59790;SDS011;47431;51.640;5.554;2023-02-13T17:27:19;29.30;;;23.00;;
59790;SDS011;47431;51.640;5.554;2023-02-13T17:29:44;36.05;;;22.80;;
59790;SDS011;47431;51.640;5.554;2023-02-13T17:32:13;29.95;;;22.00;;
59790;SDS011;47431;51.640;5.554;2023-02-13T17:34:39;30.25;;;23.13;;
59790;SDS011;47431;51.640;5.554;2023-02-13T17:37:09;31.80;;;22.65;;
59790;SDS011;47431;51.640;5.554;2023-02-13T17:39:39;36.78;;;24.50;;
59790;SDS011;47431;51.640;5.554;2023-02-13T17:42:04;32.75;;;23.17;;
59790;SDS011;47431;51.640;5.554;2023-02-13T17:44:29;32.33;;;22.58;;
59790;SDS011;47431;51.640;5.554;2023-02-13T17:46:55;30.63;;;22.08;;
59790;SDS011;47431;51.640;5.554;2023-02-13T17:49:20;32.40;;;23.05;;
59790;SDS011;47431;51.640;5.554;2023-02-13T17:51:45;31.55;;;22.50;;
59790;SDS011;47431;51.640;5.554;2023-02-13T17:54:10;31.40;;;23.02;;